sensor_id;sensor_type;location;lat;lon;timestamp;P1;durP1;ratioP1;P2;durP2;ratioP2
68377;SDS011;55322;48.146;11.516;2023-08-17T00:01:49;13.10;;;6.30;;
68377;SDS011;55322;48.146;11.516;2023-08-17T00:04:15;11.97;;;6.23;;
68377;SDS011;55322;48.146;11.516;2023-08-17T00:06:41;15.07;;;6.00;;
68377;SDS011;55322;48.146;11.516;2023-08-17T00:09:07;10.43;;;5.90;;
68377;SDS011;55322;48.146;11.516;2023-08-17T00:11:32;9.18;;;5.82;;
68377;SDS011;55322;48.146;11.516;2023-08-17T00:13:58;9.87;;;5.90;;
68377;SDS011;55322;48.146;11.516;2023-08-17T00:16:24;10.73;;;5.88;;
68377;SDS011;55322;48.146;11.516;2023-08-17T00:18:49;11.10;;;6.10;;
68377;SDS011;55322;48.146;11.516;2023-08-17T00:21:14;10.30;;;5.77;;
68377;SDS011;55322;48.146;11.516;2023-08-17T00:23:40;12.33;;;6.30;;
68377;SDS011;55322;48.146;11.516;2023-08-17T00:26:05;10.20;;;6.37;;
68377;SDS011;55322;48.146;11.516;2023-08-17T00:28:31;9.80;;;6.07;;
68377;SDS011;55322;48.146;11.516;2023-08-17T00:30:56;11.73;;;6.00;;
68377;SDS011;55322;48.146;11.516;2023-08-17T00:33:22;10.17;;;6.03;;
68377;SDS011;55322;48.146;11.516;2023-08-17T00:35:47;11.23;;;7.10;;
68377;SDS011;55322;48.146;11.516;2023-08-17T00:38:13;11.60;;;6.60;;
68377;SDS011;55322;48.146;11.516;2023-08-17T00:40:38;11.83;;;6.47;;
68377;SDS011;55322;48.146;11.516;2023-08-17T00:43:04;10.47;;;6.00;;
68377;SDS011;55322;48.146;11.516;2023-08-17T00:45:30;10.57;;;6.55;;
68377;SDS011;55322;48.146;11.516;2023-08-17T00:47:56;10.20;;;6.25;;
68377;SDS011;55322;48.146;11.516;2023-08-17T00:50:23;9.90;;;5.97;;
68377;SDS011;55322;48.146;11.516;2023-08-17T00:52:49;11.02;;;6.10;;
68377;SDS011;55322;48.146;11.516;2023-08-17T00:55:16;10.20;;;6.68;;
68377;SDS011;55322;48.146;11.516;2023-08-17T00:57:42;10.77;;;5.73;;
68377;SDS011;55322;48.146;11.516;2023-08-17T01:00:08;10.13;;;6.75;;
68377;SDS011;55322;48.146;11.516;2023-08-17T01:02:36;10.38;;;5.97;;
68377;SDS011;55322;48.146;11.516;2023-08-17T01:05:02;9.57;;;6.15;;
68377;SDS011;55322;48.146;11.516;2023-08-17T01:07:28;11.43;;;6.30;;
68377;SDS011;55322;48.146;11.516;2023-08-17T01:09:53;10.57;;;6.00;;
68377;SDS011;55322;48.146;11.516;2023-08-17T01:12:21;11.20;;;6.40;;
68377;SDS011;55322;48.146;11.516;2023-08-17T01:17:26;11.13;;;6.60;;
68377;SDS011;55322;48.146;11.516;2023-08-17T01:19:57;11.77;;;6.20;;
68377;SDS011;55322;48.146;11.516;2023-08-17T01:22:24;10.98;;;6.30;;
68377;SDS011;55322;48.146;11.516;2023-08-17T01:24:51;12.43;;;7.00;;
68377;SDS011;55322;48.146;11.516;2023-08-17T01:27:22;9.87;;;6.10;;
68377;SDS011;55322;48.146;11.516;2023-08-17T01:29:48;9.82;;;6.22;;
68377;SDS011;55322;48.146;11.516;2023-08-17T01:32:20;10.93;;;6.38;;
68377;SDS011;55322;48.146;11.516;2023-08-17T01:35:04;12.23;;;6.60;;
68377;SDS011;55322;48.146;11.516;2023-08-17T01:37:36;13.43;;;7.18;;
68377;SDS011;55322;48.146;11.516;2023-08-17T01:40:05;11.45;;;7.45;;
68377;SDS011;55322;48.146;11.516;2023-08-17T01:42:32;10.70;;;6.88;;
68377;SDS011;55322;48.146;11.516;2023-08-17T01:44:58;10.90;;;7.30;;
68377;SDS011;55322;48.146;11.516;2023-08-17T01:47:23;11.38;;;7.20;;
68377;SDS011;55322;48.146;11.516;2023-08-17T01:49:49;11.37;;;6.67;;
68377;SDS011;55322;48.146;11.516;2023-08-17T01:52:15;12.30;;;7.28;;
68377;SDS011;55322;48.146;11.516;2023-08-17T01:54:40;9.77;;;6.63;;
68377;SDS011;55322;48.146;11.516;2023-08-17T01:57:05;13.37;;;8.23;;
68377;SDS011;55322;48.146;11.516;2023-08-17T01:59:31;10.43;;;6.43;;
68377;SDS011;55322;48.146;11.516;2023-08-17T02:01:56;11.90;;;7.03;;
68377;SDS011;55322;48.146;11.516;2023-08-17T02:04:21;10.63;;;7.10;;
68377;SDS011;55322;48.146;11.516;2023-08-17T02:06:47;9.77;;;6.20;;
68377;SDS011;55322;48.146;11.516;2023-08-17T02:09:12;13.43;;;7.00;;
68377;SDS011;55322;48.146;11.516;2023-08-17T02:11:37;11.37;;;6.57;;
68377;SDS011;55322;48.146;11.516;2023-08-17T02:14:03;12.67;;;7.10;;
68377;SDS011;55322;48.146;11.516;2023-08-17T02:16:28;11.83;;;6.87;;
68377;SDS011;55322;48.146;11.516;2023-08-17T02:18:53;12.53;;;7.23;;
68377;SDS011;55322;48.146;11.516;2023-08-17T02:21:19;13.50;;;7.00;;
68377;SDS011;55322;48.146;11.516;2023-08-17T02:23:44;13.38;;;6.70;;
68377;SDS011;55322;48.146;11.516;2023-08-17T02:26:09;13.37;;;7.63;;
68377;SDS011;55322;48.146;11.516;2023-08-17T02:28:35;12.90;;;7.67;;
68377;SDS011;55322;48.146;11.516;2023-08-17T02:31:00;13.37;;;7.40;;
68377;SDS011;55322;48.146;11.516;2023-08-17T02:33:25;13.07;;;8.20;;
68377;SDS011;55322;48.146;11.516;2023-08-17T02:35:51;11.90;;;7.82;;
68377;SDS011;55322;48.146;11.516;2023-08-17T02:38:17;13.53;;;8.03;;
68377;SDS011;55322;48.146;11.516;2023-08-17T02:40:42;10.93;;;7.10;;
68377;SDS011;55322;48.146;11.516;2023-08-17T02:43:08;10.80;;;6.70;;
68377;SDS011;55322;48.146;11.516;2023-08-17T02:45:33;11.27;;;6.80;;
68377;SDS011;55322;48.146;11.516;2023-08-17T02:47:59;12.40;;;6.93;;
68377;SDS011;55322;48.146;11.516;2023-08-17T02:50:24;11.67;;;6.80;;
68377;SDS011;55322;48.146;11.516;2023-08-17T02:52:50;11.50;;;7.43;;
68377;SDS011;55322;48.146;11.516;2023-08-17T02:55:15;12.33;;;7.20;;
68377;SDS011;55322;48.146;11.516;2023-08-17T02:57:40;11.87;;;7.33;;
68377;SDS011;55322;48.146;11.516;2023-08-17T03:00:06;11.93;;;7.40;;
68377;SDS011;55322;48.146;11.516;2023-08-17T03:02:32;10.15;;;6.68;;
68377;SDS011;55322;48.146;11.516;2023-08-17T03:04:57;12.50;;;7.77;;
68377;SDS011;55322;48.146;11.516;2023-08-17T03:07:22;11.17;;;6.90;;
68377;SDS011;55322;48.146;11.516;2023-08-17T03:09:47;10.23;;;6.53;;
68377;SDS011;55322;48.146;11.516;2023-08-17T03:12:13;11.73;;;6.57;;
68377;SDS011;55322;48.146;11.516;2023-08-17T03:14:38;12.33;;;6.77;;
68377;SDS011;55322;48.146;11.516;2023-08-17T03:17:03;10.77;;;6.93;;
68377;SDS011;55322;48.146;11.516;2023-08-17T03:19:29;13.50;;;7.10;;
68377;SDS011;55322;48.146;11.516;2023-08-17T03:21:54;11.87;;;7.17;;
68377;SDS011;55322;48.146;11.516;2023-08-17T03:24:19;11.57;;;6.80;;
68377;SDS011;55322;48.146;11.516;2023-08-17T03:26:45;10.47;;;6.80;;
68377;SDS011;55322;48.146;11.516;2023-08-17T03:29:10;10.50;;;6.70;;
68377;SDS011;55322;48.146;11.516;2023-08-17T03:31:35;11.47;;;7.73;;
68377;SDS011;55322;48.146;11.516;2023-08-17T03:34:01;11.53;;;7.17;;
68377;SDS011;55322;48.146;11.516;2023-08-17T03:36:26;9.73;;;6.65;;
68377;SDS011;55322;48.146;11.516;2023-08-17T03:38:51;11.07;;;6.80;;
68377;SDS011;55322;48.146;11.516;2023-08-17T03:41:17;10.40;;;6.97;;
68377;SDS011;55322;48.146;11.516;2023-08-17T03:43:42;11.50;;;7.17;;
68377;SDS011;55322;48.146;11.516;2023-08-17T03:46:07;13.40;;;7.10;;
68377;SDS011;55322;48.146;11.516;2023-08-17T03:48:32;11.77;;;7.03;;
68377;SDS011;55322;48.146;11.516;2023-08-17T03:50:58;10.43;;;6.83;;
68377;SDS011;55322;48.146;11.516;2023-08-17T03:53:23;10.90;;;7.03;;
68377;SDS011;55322;48.146;11.516;2023-08-17T03:55:49;11.30;;;6.55;;
68377;SDS011;55322;48.146;11.516;2023-08-17T03:58:15;10.53;;;6.97;;
68377;SDS011;55322;48.146;11.516;2023-08-17T04:00:41;11.43;;;6.55;;
68377;SDS011;55322;48.146;11.516;2023-08-17T04:03:07;10.45;;;7.22;;
68377;SDS011;55322;48.146;11.516;2023-08-17T04:05:32;10.67;;;6.93;;
68377;SDS011;55322;48.146;11.516;2023-08-17T04:07:58;11.07;;;7.00;;
68377;SDS011;55322;48.146;11.516;2023-08-17T04:10:27;11.57;;;7.10;;
68377;SDS011;55322;48.146;11.516;2023-08-17T04:12:52;12.37;;;7.20;;
68377;SDS011;55322;48.146;11.516;2023-08-17T04:15:18;10.37;;;7.00;;
68377;SDS011;55322;48.146;11.516;2023-08-17T04:17:43;11.77;;;7.03;;
68377;SDS011;55322;48.146;11.516;2023-08-17T04:20:08;12.33;;;8.00;;
68377;SDS011;55322;48.146;11.516;2023-08-17T04:22:34;12.48;;;7.25;;
68377;SDS011;55322;48.146;11.516;2023-08-17T04:25:00;14.10;;;7.80;;
68377;SDS011;55322;48.146;11.516;2023-08-17T04:27:25;10.83;;;7.10;;
68377;SDS011;55322;48.146;11.516;2023-08-17T04:29:50;11.93;;;7.10;;
68377;SDS011;55322;48.146;11.516;2023-08-17T04:32:15;10.90;;;7.40;;
68377;SDS011;55322;48.146;11.516;2023-08-17T04:34:42;12.52;;;8.02;;
68377;SDS011;55322;48.146;11.516;2023-08-17T04:37:08;12.77;;;7.87;;
68377;SDS011;55322;48.146;11.516;2023-08-17T04:39:33;12.80;;;7.00;;
68377;SDS011;55322;48.146;11.516;2023-08-17T04:41:58;13.90;;;8.00;;
68377;SDS011;55322;48.146;11.516;2023-08-17T04:44:24;11.50;;;7.80;;
68377;SDS011;55322;48.146;11.516;2023-08-17T04:46:49;11.67;;;7.33;;
68377;SDS011;55322;48.146;11.516;2023-08-17T04:49:14;12.13;;;7.80;;
68377;SDS011;55322;48.146;11.516;2023-08-17T04:51:40;13.00;;;7.90;;
68377;SDS011;55322;48.146;11.516;2023-08-17T04:54:05;14.40;;;7.63;;
68377;SDS011;55322;48.146;11.516;2023-08-17T04:56:30;11.43;;;7.53;;
68377;SDS011;55322;48.146;11.516;2023-08-17T04:58:56;11.77;;;8.20;;
68377;SDS011;55322;48.146;11.516;2023-08-17T05:01:21;12.37;;;8.13;;
68377;SDS011;55322;48.146;11.516;2023-08-17T05:03:46;11.85;;;7.65;;
68377;SDS011;55322;48.146;11.516;2023-08-17T05:06:12;12.17;;;8.00;;
68377;SDS011;55322;48.146;11.516;2023-08-17T05:08:38;13.00;;;7.72;;
68377;SDS011;55322;48.146;11.516;2023-08-17T05:11:03;12.83;;;8.33;;
68377;SDS011;55322;48.146;11.516;2023-08-17T05:13:28;12.37;;;8.17;;
68377;SDS011;55322;48.146;11.516;2023-08-17T05:15:54;14.17;;;8.00;;
68377;SDS011;55322;48.146;11.516;2023-08-17T05:18:19;12.87;;;8.00;;
68377;SDS011;55322;48.146;11.516;2023-08-17T05:20:44;11.47;;;7.83;;
68377;SDS011;55322;48.146;11.516;2023-08-17T05:23:10;11.93;;;8.23;;
68377;SDS011;55322;48.146;11.516;2023-08-17T05:25:45;12.95;;;7.88;;
68377;SDS011;55322;48.146;11.516;2023-08-17T05:28:11;12.97;;;7.50;;
68377;SDS011;55322;48.146;11.516;2023-08-17T05:30:36;11.63;;;7.90;;
68377;SDS011;55322;48.146;11.516;2023-08-17T05:33:02;15.70;;;7.87;;
68377;SDS011;55322;48.146;11.516;2023-08-17T05:35:27;14.87;;;8.70;;
68377;SDS011;55322;48.146;11.516;2023-08-17T05:37:52;13.90;;;8.03;;
68377;SDS011;55322;48.146;11.516;2023-08-17T05:40:18;15.13;;;8.47;;
68377;SDS011;55322;48.146;11.516;2023-08-17T05:42:43;14.05;;;9.23;;
68377;SDS011;55322;48.146;11.516;2023-08-17T05:45:09;13.87;;;8.53;;
68377;SDS011;55322;48.146;11.516;2023-08-17T05:47:34;11.60;;;7.40;;
68377;SDS011;55322;48.146;11.516;2023-08-17T05:50:00;16.73;;;7.70;;
68377;SDS011;55322;48.146;11.516;2023-08-17T05:52:25;14.87;;;7.90;;
68377;SDS011;55322;48.146;11.516;2023-08-17T05:54:50;11.27;;;7.00;;
68377;SDS011;55322;48.146;11.516;2023-08-17T05:57:15;14.87;;;8.00;;
68377;SDS011;55322;48.146;11.516;2023-08-17T05:59:41;11.43;;;7.33;;
68377;SDS011;55322;48.146;11.516;2023-08-17T06:02:06;10.93;;;7.23;;
68377;SDS011;55322;48.146;11.516;2023-08-17T06:04:31;12.60;;;7.40;;
68377;SDS011;55322;48.146;11.516;2023-08-17T06:06:57;13.47;;;7.23;;
68377;SDS011;55322;48.146;11.516;2023-08-17T06:09:22;11.90;;;7.07;;
68377;SDS011;55322;48.146;11.516;2023-08-17T06:11:47;10.40;;;6.85;;
68377;SDS011;55322;48.146;11.516;2023-08-17T06:14:13;10.77;;;6.73;;
68377;SDS011;55322;48.146;11.516;2023-08-17T06:16:39;11.70;;;6.20;;
68377;SDS011;55322;48.146;11.516;2023-08-17T06:19:04;10.63;;;6.10;;
68377;SDS011;55322;48.146;11.516;2023-08-17T06:21:30;9.97;;;5.47;;
68377;SDS011;55322;48.146;11.516;2023-08-17T06:23:55;12.20;;;6.37;;
68377;SDS011;55322;48.146;11.516;2023-08-17T06:26:20;10.97;;;5.77;;
68377;SDS011;55322;48.146;11.516;2023-08-17T06:28:46;9.93;;;5.90;;
68377;SDS011;55322;48.146;11.516;2023-08-17T06:31:14;8.70;;;5.30;;
68377;SDS011;55322;48.146;11.516;2023-08-17T06:33:39;9.50;;;5.38;;
68377;SDS011;55322;48.146;11.516;2023-08-17T06:36:05;8.80;;;5.57;;
68377;SDS011;55322;48.146;11.516;2023-08-17T06:38:30;10.00;;;5.63;;
68377;SDS011;55322;48.146;11.516;2023-08-17T06:40:55;9.17;;;5.10;;
68377;SDS011;55322;48.146;11.516;2023-08-17T06:43:20;8.13;;;5.37;;
68377;SDS011;55322;48.146;11.516;2023-08-17T06:45:46;9.43;;;5.20;;
68377;SDS011;55322;48.146;11.516;2023-08-17T06:48:11;10.32;;;5.35;;
68377;SDS011;55322;48.146;11.516;2023-08-17T06:50:36;9.27;;;4.97;;
68377;SDS011;55322;48.146;11.516;2023-08-17T06:53:03;11.32;;;5.40;;
68377;SDS011;55322;48.146;11.516;2023-08-17T06:55:28;9.83;;;5.40;;
68377;SDS011;55322;48.146;11.516;2023-08-17T06:57:53;9.33;;;5.53;;
68377;SDS011;55322;48.146;11.516;2023-08-17T07:00:20;8.50;;;5.32;;
68377;SDS011;55322;48.146;11.516;2023-08-17T07:02:48;9.73;;;5.53;;
68377;SDS011;55322;48.146;11.516;2023-08-17T07:05:15;9.20;;;4.90;;
68377;SDS011;55322;48.146;11.516;2023-08-17T07:07:40;8.33;;;4.80;;
68377;SDS011;55322;48.146;11.516;2023-08-17T07:10:07;8.57;;;5.05;;
68377;SDS011;55322;48.146;11.516;2023-08-17T07:12:32;8.43;;;5.50;;
68377;SDS011;55322;48.146;11.516;2023-08-17T07:14:58;10.37;;;5.27;;
68377;SDS011;55322;48.146;11.516;2023-08-17T07:17:23;8.70;;;5.47;;
68377;SDS011;55322;48.146;11.516;2023-08-17T07:19:49;9.50;;;5.43;;
68377;SDS011;55322;48.146;11.516;2023-08-17T07:22:14;8.73;;;5.57;;
68377;SDS011;55322;48.146;11.516;2023-08-17T07:24:41;9.65;;;5.05;;
68377;SDS011;55322;48.146;11.516;2023-08-17T07:27:06;10.63;;;5.23;;
68377;SDS011;55322;48.146;11.516;2023-08-17T07:29:32;8.03;;;4.97;;
68377;SDS011;55322;48.146;11.516;2023-08-17T07:31:57;8.63;;;4.97;;
68377;SDS011;55322;48.146;11.516;2023-08-17T07:34:26;8.40;;;5.03;;
68377;SDS011;55322;48.146;11.516;2023-08-17T07:36:51;8.05;;;4.85;;
68377;SDS011;55322;48.146;11.516;2023-08-17T07:39:17;9.30;;;4.97;;
68377;SDS011;55322;48.146;11.516;2023-08-17T07:41:43;8.87;;;5.10;;
68377;SDS011;55322;48.146;11.516;2023-08-17T07:44:08;7.13;;;4.70;;
68377;SDS011;55322;48.146;11.516;2023-08-17T07:46:34;8.53;;;4.30;;
68377;SDS011;55322;48.146;11.516;2023-08-17T07:48:59;7.70;;;4.87;;
68377;SDS011;55322;48.146;11.516;2023-08-17T07:51:24;7.93;;;5.03;;
68377;SDS011;55322;48.146;11.516;2023-08-17T07:53:50;7.77;;;4.73;;
68377;SDS011;55322;48.146;11.516;2023-08-17T07:56:15;8.13;;;5.27;;
68377;SDS011;55322;48.146;11.516;2023-08-17T07:58:40;7.43;;;4.40;;
68377;SDS011;55322;48.146;11.516;2023-08-17T08:01:07;9.77;;;5.20;;
68377;SDS011;55322;48.146;11.516;2023-08-17T08:03:32;8.20;;;4.13;;
68377;SDS011;55322;48.146;11.516;2023-08-17T08:05:58;8.70;;;4.50;;
68377;SDS011;55322;48.146;11.516;2023-08-17T08:08:23;8.03;;;4.67;;
68377;SDS011;55322;48.146;11.516;2023-08-17T08:10:48;10.73;;;4.60;;
68377;SDS011;55322;48.146;11.516;2023-08-17T08:13:14;9.10;;;4.93;;
68377;SDS011;55322;48.146;11.516;2023-08-17T08:15:39;8.90;;;4.83;;
68377;SDS011;55322;48.146;11.516;2023-08-17T08:18:04;9.57;;;4.93;;
68377;SDS011;55322;48.146;11.516;2023-08-17T08:20:30;8.95;;;5.35;;
68377;SDS011;55322;48.146;11.516;2023-08-17T08:22:55;9.30;;;4.37;;
68377;SDS011;55322;48.146;11.516;2023-08-17T08:25:20;7.70;;;4.67;;
68377;SDS011;55322;48.146;11.516;2023-08-17T08:27:46;10.63;;;5.07;;
68377;SDS011;55322;48.146;11.516;2023-08-17T08:30:11;8.60;;;4.80;;
68377;SDS011;55322;48.146;11.516;2023-08-17T08:32:36;7.70;;;5.13;;
68377;SDS011;55322;48.146;11.516;2023-08-17T08:35:02;8.67;;;4.80;;
68377;SDS011;55322;48.146;11.516;2023-08-17T08:37:28;7.43;;;4.80;;
68377;SDS011;55322;48.146;11.516;2023-08-17T08:39:53;10.63;;;5.23;;
68377;SDS011;55322;48.146;11.516;2023-08-17T08:42:20;8.65;;;4.65;;
68377;SDS011;55322;48.146;11.516;2023-08-17T08:44:46;7.75;;;4.35;;
68377;SDS011;55322;48.146;11.516;2023-08-17T08:47:12;8.73;;;4.45;;
68377;SDS011;55322;48.146;11.516;2023-08-17T08:49:38;8.40;;;4.47;;
68377;SDS011;55322;48.146;11.516;2023-08-17T08:52:08;8.18;;;4.60;;
68377;SDS011;55322;48.146;11.516;2023-08-17T08:54:38;8.55;;;5.05;;
68377;SDS011;55322;48.146;11.516;2023-08-17T08:57:08;8.57;;;4.38;;
68377;SDS011;55322;48.146;11.516;2023-08-17T08:59:39;7.85;;;4.78;;
68377;SDS011;55322;48.146;11.516;2023-08-17T09:02:10;8.07;;;4.70;;
68377;SDS011;55322;48.146;11.516;2023-08-17T09:04:38;9.32;;;4.68;;
68377;SDS011;55322;48.146;11.516;2023-08-17T09:07:04;7.27;;;4.80;;
68377;SDS011;55322;48.146;11.516;2023-08-17T09:09:30;10.27;;;6.40;;
68377;SDS011;55322;48.146;11.516;2023-08-17T09:11:56;7.87;;;4.53;;
68377;SDS011;55322;48.146;11.516;2023-08-17T09:14:21;9.98;;;4.93;;
68377;SDS011;55322;48.146;11.516;2023-08-17T09:16:46;8.20;;;5.13;;
68377;SDS011;55322;48.146;11.516;2023-08-17T09:19:12;8.57;;;5.13;;
68377;SDS011;55322;48.146;11.516;2023-08-17T09:21:37;10.18;;;4.78;;
68377;SDS011;55322;48.146;11.516;2023-08-17T09:24:03;9.77;;;4.77;;
68377;SDS011;55322;48.146;11.516;2023-08-17T09:26:32;8.83;;;5.00;;
68377;SDS011;55322;48.146;11.516;2023-08-17T09:29:02;9.38;;;5.13;;
68377;SDS011;55322;48.146;11.516;2023-08-17T09:31:41;8.48;;;5.25;;
68377;SDS011;55322;48.146;11.516;2023-08-17T09:34:06;8.57;;;4.60;;
68377;SDS011;55322;48.146;11.516;2023-08-17T09:36:31;8.80;;;4.87;;
68377;SDS011;55322;48.146;11.516;2023-08-17T09:39:00;7.82;;;4.93;;
68377;SDS011;55322;48.146;11.516;2023-08-17T09:41:26;9.17;;;4.70;;
68377;SDS011;55322;48.146;11.516;2023-08-17T09:43:52;8.07;;;4.78;;
68377;SDS011;55322;48.146;11.516;2023-08-17T09:46:19;8.52;;;5.20;;
68377;SDS011;55322;48.146;11.516;2023-08-17T09:48:45;8.77;;;5.07;;
68377;SDS011;55322;48.146;11.516;2023-08-17T09:51:10;9.67;;;4.90;;
68377;SDS011;55322;48.146;11.516;2023-08-17T09:53:40;7.20;;;4.28;;
68377;SDS011;55322;48.146;11.516;2023-08-17T09:56:05;8.73;;;4.80;;
68377;SDS011;55322;48.146;11.516;2023-08-17T09:58:35;8.50;;;4.68;;
68377;SDS011;55322;48.146;11.516;2023-08-17T10:01:03;8.00;;;4.70;;
68377;SDS011;55322;48.146;11.516;2023-08-17T10:03:29;7.22;;;4.40;;
68377;SDS011;55322;48.146;11.516;2023-08-17T10:05:59;6.90;;;4.10;;
68377;SDS011;55322;48.146;11.516;2023-08-17T10:08:26;8.15;;;4.20;;
68377;SDS011;55322;48.146;11.516;2023-08-17T10:10:55;9.75;;;4.30;;
68377;SDS011;55322;48.146;11.516;2023-08-17T10:13:32;7.45;;;3.92;;
68377;SDS011;55322;48.146;11.516;2023-08-17T10:21:27;7.40;;;3.97;;
68377;SDS011;55322;48.146;11.516;2023-08-17T10:23:54;9.88;;;6.13;;
68377;SDS011;55322;48.146;11.516;2023-08-17T10:26:20;10.00;;;4.82;;
68377;SDS011;55322;48.146;11.516;2023-08-17T10:28:46;9.52;;;4.70;;
68377;SDS011;55322;48.146;11.516;2023-08-17T10:31:13;7.47;;;4.67;;
68377;SDS011;55322;48.146;11.516;2023-08-17T10:33:38;12.68;;;4.88;;
68377;SDS011;55322;48.146;11.516;2023-08-17T10:36:07;8.00;;;4.70;;
68377;SDS011;55322;48.146;11.516;2023-08-17T10:38:33;8.45;;;4.93;;
68377;SDS011;55322;48.146;11.516;2023-08-17T10:41:08;8.53;;;5.03;;
68377;SDS011;55322;48.146;11.516;2023-08-17T10:43:35;9.37;;;5.60;;
68377;SDS011;55322;48.146;11.516;2023-08-17T10:46:15;9.35;;;4.97;;
68377;SDS011;55322;48.146;11.516;2023-08-17T10:48:44;8.60;;;5.75;;
68377;SDS011;55322;48.146;11.516;2023-08-17T10:51:09;8.13;;;5.10;;
68377;SDS011;55322;48.146;11.516;2023-08-17T10:53:38;10.07;;;5.40;;
68377;SDS011;55322;48.146;11.516;2023-08-17T10:56:09;8.27;;;5.45;;
68377;SDS011;55322;48.146;11.516;2023-08-17T10:58:37;8.95;;;5.03;;
68377;SDS011;55322;48.146;11.516;2023-08-17T11:01:02;10.03;;;5.30;;
68377;SDS011;55322;48.146;11.516;2023-08-17T11:03:28;8.77;;;5.60;;
68377;SDS011;55322;48.146;11.516;2023-08-17T11:05:54;7.82;;;4.90;;
68377;SDS011;55322;48.146;11.516;2023-08-17T11:08:26;9.70;;;5.23;;
68377;SDS011;55322;48.146;11.516;2023-08-17T11:11:11;8.88;;;5.13;;
68377;SDS011;55322;48.146;11.516;2023-08-17T11:13:41;9.35;;;5.20;;
68377;SDS011;55322;48.146;11.516;2023-08-17T11:16:08;9.30;;;5.35;;
68377;SDS011;55322;48.146;11.516;2023-08-17T11:18:34;10.23;;;5.78;;
68377;SDS011;55322;48.146;11.516;2023-08-17T11:21:01;8.27;;;5.27;;
68377;SDS011;55322;48.146;11.516;2023-08-17T11:23:34;8.73;;;5.32;;
68377;SDS011;55322;48.146;11.516;2023-08-17T11:26:01;9.27;;;5.07;;
68377;SDS011;55322;48.146;11.516;2023-08-17T11:28:27;8.73;;;5.65;;
68377;SDS011;55322;48.146;11.516;2023-08-17T11:31:01;8.57;;;4.90;;
68377;SDS011;55322;48.146;11.516;2023-08-17T11:33:28;9.23;;;5.63;;
68377;SDS011;55322;48.146;11.516;2023-08-17T11:35:56;8.47;;;4.80;;
68377;SDS011;55322;48.146;11.516;2023-08-17T11:38:22;7.70;;;4.20;;
68377;SDS011;55322;48.146;11.516;2023-08-17T11:40:51;7.82;;;4.40;;
68377;SDS011;55322;48.146;11.516;2023-08-17T11:43:17;7.57;;;4.32;;
68377;SDS011;55322;48.146;11.516;2023-08-17T11:45:45;9.17;;;4.27;;
68377;SDS011;55322;48.146;11.516;2023-08-17T11:48:11;9.52;;;4.40;;
68377;SDS011;55322;48.146;11.516;2023-08-17T11:50:36;6.70;;;4.13;;
68377;SDS011;55322;48.146;11.516;2023-08-17T11:53:03;8.10;;;4.80;;
68377;SDS011;55322;48.146;11.516;2023-08-17T11:55:29;7.90;;;4.88;;
68377;SDS011;55322;48.146;11.516;2023-08-17T11:57:54;9.40;;;5.40;;
68377;SDS011;55322;48.146;11.516;2023-08-17T12:00:20;9.27;;;4.90;;
68377;SDS011;55322;48.146;11.516;2023-08-17T12:02:47;7.95;;;4.90;;
68377;SDS011;55322;48.146;11.516;2023-08-17T12:05:13;7.95;;;4.70;;
68377;SDS011;55322;48.146;11.516;2023-08-17T12:07:38;7.80;;;5.00;;
68377;SDS011;55322;48.146;11.516;2023-08-17T12:10:04;8.60;;;4.93;;
68377;SDS011;55322;48.146;11.516;2023-08-17T12:12:30;10.32;;;5.30;;
68377;SDS011;55322;48.146;11.516;2023-08-17T12:14:56;8.43;;;5.00;;
68377;SDS011;55322;48.146;11.516;2023-08-17T12:17:22;9.65;;;4.95;;
68377;SDS011;55322;48.146;11.516;2023-08-17T12:19:53;7.13;;;4.30;;
68377;SDS011;55322;48.146;11.516;2023-08-17T12:22:22;8.98;;;5.00;;
68377;SDS011;55322;48.146;11.516;2023-08-17T12:24:48;8.73;;;4.80;;
68377;SDS011;55322;48.146;11.516;2023-08-17T12:27:14;10.80;;;4.60;;
68377;SDS011;55322;48.146;11.516;2023-08-17T12:29:46;7.70;;;5.00;;
68377;SDS011;55322;48.146;11.516;2023-08-17T12:32:17;10.50;;;5.10;;
68377;SDS011;55322;48.146;11.516;2023-08-17T12:34:44;7.03;;;4.60;;
68377;SDS011;55322;48.146;11.516;2023-08-17T12:37:10;7.25;;;4.75;;
68377;SDS011;55322;48.146;11.516;2023-08-17T12:39:36;8.13;;;4.57;;
68377;SDS011;55322;48.146;11.516;2023-08-17T12:42:02;12.60;;;5.00;;
68377;SDS011;55322;48.146;11.516;2023-08-17T12:44:30;10.65;;;4.78;;
68377;SDS011;55322;48.146;11.516;2023-08-17T12:46:56;7.43;;;4.57;;
68377;SDS011;55322;48.146;11.516;2023-08-17T12:49:22;8.73;;;4.53;;
68377;SDS011;55322;48.146;11.516;2023-08-17T12:51:48;6.90;;;4.50;;
68377;SDS011;55322;48.146;11.516;2023-08-17T12:54:13;7.20;;;4.70;;
68377;SDS011;55322;48.146;11.516;2023-08-17T12:56:39;9.87;;;4.93;;
68377;SDS011;55322;48.146;11.516;2023-08-17T12:59:04;15.83;;;10.10;;
68377;SDS011;55322;48.146;11.516;2023-08-17T13:01:30;9.30;;;5.50;;
68377;SDS011;55322;48.146;11.516;2023-08-17T13:03:55;8.13;;;4.37;;
68377;SDS011;55322;48.146;11.516;2023-08-17T13:06:20;8.73;;;4.38;;
68377;SDS011;55322;48.146;11.516;2023-08-17T13:08:46;8.07;;;4.47;;
68377;SDS011;55322;48.146;11.516;2023-08-17T13:11:11;7.33;;;4.50;;
68377;SDS011;55322;48.146;11.516;2023-08-17T13:13:36;8.90;;;4.23;;
68377;SDS011;55322;48.146;11.516;2023-08-17T13:16:02;8.03;;;4.20;;
68377;SDS011;55322;48.146;11.516;2023-08-17T13:18:27;11.70;;;4.32;;
68377;SDS011;55322;48.146;11.516;2023-08-17T13:20:53;9.27;;;4.53;;
68377;SDS011;55322;48.146;11.516;2023-08-17T13:23:19;6.55;;;3.72;;
68377;SDS011;55322;48.146;11.516;2023-08-17T13:25:44;8.00;;;4.23;;
68377;SDS011;55322;48.146;11.516;2023-08-17T13:28:09;7.77;;;4.87;;
68377;SDS011;55322;48.146;11.516;2023-08-17T13:30:35;7.43;;;4.10;;
68377;SDS011;55322;48.146;11.516;2023-08-17T13:33:00;6.83;;;3.63;;
68377;SDS011;55322;48.146;11.516;2023-08-17T13:35:25;7.40;;;3.67;;
68377;SDS011;55322;48.146;11.516;2023-08-17T13:37:54;11.83;;;3.50;;
68377;SDS011;55322;48.146;11.516;2023-08-17T13:40:19;7.57;;;4.10;;
68377;SDS011;55322;48.146;11.516;2023-08-17T13:42:45;9.63;;;4.05;;
68377;SDS011;55322;48.146;11.516;2023-08-17T13:45:11;7.97;;;4.77;;
68377;SDS011;55322;48.146;11.516;2023-08-17T13:47:36;11.77;;;7.17;;
68377;SDS011;55322;48.146;11.516;2023-08-17T13:50:01;17.67;;;13.80;;
68377;SDS011;55322;48.146;11.516;2023-08-17T13:52:28;11.32;;;7.28;;
68377;SDS011;55322;48.146;11.516;2023-08-17T13:54:53;20.07;;;14.73;;
68377;SDS011;55322;48.146;11.516;2023-08-17T13:57:19;12.00;;;7.47;;
68377;SDS011;55322;48.146;11.516;2023-08-17T13:59:44;10.60;;;6.07;;
68377;SDS011;55322;48.146;11.516;2023-08-17T14:02:10;14.80;;;9.63;;
68377;SDS011;55322;48.146;11.516;2023-08-17T14:04:35;12.10;;;6.73;;
68377;SDS011;55322;48.146;11.516;2023-08-17T14:07:00;22.17;;;15.07;;
68377;SDS011;55322;48.146;11.516;2023-08-17T14:09:26;16.40;;;10.40;;
68377;SDS011;55322;48.146;11.516;2023-08-17T14:11:51;30.83;;;19.90;;
68377;SDS011;55322;48.146;11.516;2023-08-17T14:14:16;60.77;;;35.77;;
68377;SDS011;55322;48.146;11.516;2023-08-17T14:16:42;29.93;;;19.30;;
68377;SDS011;55322;48.146;11.516;2023-08-17T14:19:07;12.53;;;7.83;;
68377;SDS011;55322;48.146;11.516;2023-08-17T14:21:33;8.50;;;5.27;;
68377;SDS011;55322;48.146;11.516;2023-08-17T14:23:58;9.13;;;4.50;;
68377;SDS011;55322;48.146;11.516;2023-08-17T14:26:23;30.17;;;21.00;;
68377;SDS011;55322;48.146;11.516;2023-08-17T14:28:49;18.03;;;13.60;;
68377;SDS011;55322;48.146;11.516;2023-08-17T14:31:14;9.20;;;5.77;;